sensor_id;sensor_type;location;lat;lon;timestamp;P1;durP1;ratioP1;P2;durP2;ratioP2
76208;SDS011;64990;51.698;-0.292;2024-01-15T00:02:23;6.35;;;2.80;;
76208;SDS011;64990;51.698;-0.292;2024-01-15T00:04:49;4.70;;;2.88;;
76208;SDS011;64990;51.698;-0.292;2024-01-15T00:07:15;7.13;;;2.85;;
76208;SDS011;64990;51.698;-0.292;2024-01-15T00:09:41;5.22;;;2.40;;
76208;SDS011;64990;51.698;-0.292;2024-01-15T00:12:07;3.63;;;2.75;;
76208;SDS011;64990;51.698;-0.292;2024-01-15T00:14:33;4.97;;;3.35;;
76208;SDS011;64990;51.698;-0.292;2024-01-15T00:16:59;7.90;;;3.08;;
76208;SDS011;64990;51.698;-0.292;2024-01-15T00:19:25;4.93;;;3.40;;
76208;SDS011;64990;51.698;-0.292;2024-01-15T00:21:52;5.30;;;3.38;;
76208;SDS011;64990;51.698;-0.292;2024-01-15T00:24:18;6.35;;;3.42;;
76208;SDS011;64990;51.698;-0.292;2024-01-15T00:26:44;6.45;;;3.28;;
76208;SDS011;64990;51.698;-0.292;2024-01-15T00:29:10;9.20;;;3.40;;
76208;SDS011;64990;51.698;-0.292;2024-01-15T00:31:36;5.00;;;3.13;;
76208;SDS011;64990;51.698;-0.292;2024-01-15T00:34:02;5.05;;;2.85;;
76208;SDS011;64990;51.698;-0.292;2024-01-15T00:36:28;3.38;;;2.50;;
76208;SDS011;64990;51.698;-0.292;2024-01-15T00:38:54;4.22;;;2.70;;
76208;SDS011;64990;51.698;-0.292;2024-01-15T00:41:20;6.20;;;3.35;;
76208;SDS011;64990;51.698;-0.292;2024-01-15T00:43:46;5.43;;;2.80;;
76208;SDS011;64990;51.698;-0.292;2024-01-15T00:46:14;7.40;;;3.10;;
76208;SDS011;64990;51.698;-0.292;2024-01-15T00:48:40;3.67;;;2.58;;
76208;SDS011;64990;51.698;-0.292;2024-01-15T00:51:06;6.55;;;3.67;;
76208;SDS011;64990;51.698;-0.292;2024-01-15T00:53:32;8.90;;;3.45;;
76208;SDS011;64990;51.698;-0.292;2024-01-15T00:55:58;9.07;;;2.75;;
76208;SDS011;64990;51.698;-0.292;2024-01-15T00:58:25;5.40;;;3.25;;
76208;SDS011;64990;51.698;-0.292;2024-01-15T01:00:51;5.07;;;2.78;;
76208;SDS011;64990;51.698;-0.292;2024-01-15T01:03:17;3.85;;;2.50;;
76208;SDS011;64990;51.698;-0.292;2024-01-15T01:05:43;5.22;;;3.17;;
76208;SDS011;64990;51.698;-0.292;2024-01-15T01:08:10;4.13;;;2.78;;
76208;SDS011;64990;51.698;-0.292;2024-01-15T01:10:36;5.10;;;2.72;;
76208;SDS011;64990;51.698;-0.292;2024-01-15T01:13:02;5.53;;;2.67;;
76208;SDS011;64990;51.698;-0.292;2024-01-15T01:15:28;7.63;;;2.90;;
76208;SDS011;64990;51.698;-0.292;2024-01-15T01:17:54;4.72;;;2.65;;
76208;SDS011;64990;51.698;-0.292;2024-01-15T01:20:20;4.00;;;2.92;;
76208;SDS011;64990;51.698;-0.292;2024-01-15T01:22:46;6.38;;;4.15;;
76208;SDS011;64990;51.698;-0.292;2024-01-15T01:25:12;3.88;;;2.90;;
76208;SDS011;64990;51.698;-0.292;2024-01-15T01:27:38;5.40;;;3.60;;
76208;SDS011;64990;51.698;-0.292;2024-01-15T01:30:04;6.00;;;3.00;;
76208;SDS011;64990;51.698;-0.292;2024-01-15T01:32:30;6.70;;;3.17;;
76208;SDS011;64990;51.698;-0.292;2024-01-15T01:34:56;4.32;;;2.50;;
76208;SDS011;64990;51.698;-0.292;2024-01-15T01:37:22;8.07;;;2.85;;
76208;SDS011;64990;51.698;-0.292;2024-01-15T01:39:48;6.55;;;3.65;;
76208;SDS011;64990;51.698;-0.292;2024-01-15T01:42:15;5.47;;;3.05;;
76208;SDS011;64990;51.698;-0.292;2024-01-15T01:44:41;5.38;;;2.75;;
76208;SDS011;64990;51.698;-0.292;2024-01-15T01:47:07;10.25;;;3.53;;
76208;SDS011;64990;51.698;-0.292;2024-01-15T01:49:33;6.28;;;3.88;;
76208;SDS011;64990;51.698;-0.292;2024-01-15T01:52:01;10.35;;;3.50;;
76208;SDS011;64990;51.698;-0.292;2024-01-15T01:54:28;14.80;;;4.22;;
76208;SDS011;64990;51.698;-0.292;2024-01-15T01:56:55;7.18;;;2.85;;
76208;SDS011;64990;51.698;-0.292;2024-01-15T01:59:22;13.07;;;4.68;;
76208;SDS011;64990;51.698;-0.292;2024-01-15T02:01:49;8.38;;;3.45;;
76208;SDS011;64990;51.698;-0.292;2024-01-15T02:04:15;6.13;;;3.08;;
76208;SDS011;64990;51.698;-0.292;2024-01-15T02:06:42;19.65;;;3.45;;
76208;SDS011;64990;51.698;-0.292;2024-01-15T02:09:08;4.43;;;3.90;;
76208;SDS011;64990;51.698;-0.292;2024-01-15T02:11:35;6.68;;;3.35;;
76208;SDS011;64990;51.698;-0.292;2024-01-15T02:14:01;6.80;;;3.40;;
76208;SDS011;64990;51.698;-0.292;2024-01-15T02:16:27;11.48;;;3.88;;
76208;SDS011;64990;51.698;-0.292;2024-01-15T02:18:53;10.35;;;2.90;;
76208;SDS011;64990;51.698;-0.292;2024-01-15T02:21:19;5.38;;;3.35;;
76208;SDS011;64990;51.698;-0.292;2024-01-15T02:23:45;5.95;;;3.67;;
76208;SDS011;64990;51.698;-0.292;2024-01-15T02:26:11;5.82;;;3.75;;
76208;SDS011;64990;51.698;-0.292;2024-01-15T02:28:38;10.50;;;3.83;;
76208;SDS011;64990;51.698;-0.292;2024-01-15T02:31:06;6.00;;;3.78;;
76208;SDS011;64990;51.698;-0.292;2024-01-15T02:33:32;6.43;;;3.17;;
76208;SDS011;64990;51.698;-0.292;2024-01-15T02:35:58;5.82;;;3.45;;
76208;SDS011;64990;51.698;-0.292;2024-01-15T02:38:24;11.85;;;3.50;;
76208;SDS011;64990;51.698;-0.292;2024-01-15T02:40:50;7.93;;;3.15;;
76208;SDS011;64990;51.698;-0.292;2024-01-15T02:43:16;3.55;;;2.72;;
76208;SDS011;64990;51.698;-0.292;2024-01-15T02:45:44;5.18;;;2.58;;
76208;SDS011;64990;51.698;-0.292;2024-01-15T02:48:10;5.13;;;2.38;;
76208;SDS011;64990;51.698;-0.292;2024-01-15T02:50:36;8.23;;;3.00;;
76208;SDS011;64990;51.698;-0.292;2024-01-15T02:53:02;7.10;;;2.05;;
76208;SDS011;64990;51.698;-0.292;2024-01-15T02:55:28;5.10;;;2.90;;
76208;SDS011;64990;51.698;-0.292;2024-01-15T02:57:54;5.18;;;3.33;;
76208;SDS011;64990;51.698;-0.292;2024-01-15T03:00:20;3.13;;;2.45;;
76208;SDS011;64990;51.698;-0.292;2024-01-15T03:02:47;6.15;;;2.42;;
76208;SDS011;64990;51.698;-0.292;2024-01-15T03:05:13;8.80;;;2.10;;
76208;SDS011;64990;51.698;-0.292;2024-01-15T03:07:39;4.35;;;2.15;;
76208;SDS011;64990;51.698;-0.292;2024-01-15T03:10:05;4.95;;;2.30;;
76208;SDS011;64990;51.698;-0.292;2024-01-15T03:12:32;3.42;;;2.28;;
76208;SDS011;64990;51.698;-0.292;2024-01-15T03:14:58;5.95;;;2.15;;
76208;SDS011;64990;51.698;-0.292;2024-01-15T03:17:24;5.63;;;2.53;;
76208;SDS011;64990;51.698;-0.292;2024-01-15T03:19:50;8.35;;;2.22;;
76208;SDS011;64990;51.698;-0.292;2024-01-15T03:22:16;2.78;;;1.75;;
76208;SDS011;64990;51.698;-0.292;2024-01-15T03:24:42;4.30;;;1.92;;
76208;SDS011;64990;51.698;-0.292;2024-01-15T03:27:08;3.60;;;2.60;;
76208;SDS011;64990;51.698;-0.292;2024-01-15T03:29:35;2.58;;;2.15;;
76208;SDS011;64990;51.698;-0.292;2024-01-15T03:32:01;3.55;;;1.77;;
76208;SDS011;64990;51.698;-0.292;2024-01-15T03:34:27;2.33;;;1.80;;
76208;SDS011;64990;51.698;-0.292;2024-01-15T03:36:55;4.97;;;2.90;;
76208;SDS011;64990;51.698;-0.292;2024-01-15T03:39:21;7.13;;;2.28;;
76208;SDS011;64990;51.698;-0.292;2024-01-15T03:41:47;2.85;;;2.42;;
76208;SDS011;64990;51.698;-0.292;2024-01-15T03:44:13;8.98;;;3.05;;
76208;SDS011;64990;51.698;-0.292;2024-01-15T03:46:39;8.38;;;2.65;;
76208;SDS011;64990;51.698;-0.292;2024-01-15T03:49:05;7.80;;;3.13;;
76208;SDS011;64990;51.698;-0.292;2024-01-15T03:51:31;3.13;;;2.25;;
76208;SDS011;64990;51.698;-0.292;2024-01-15T03:53:57;3.30;;;3.00;;
76208;SDS011;64990;51.698;-0.292;2024-01-15T03:56:23;4.55;;;3.00;;
76208;SDS011;64990;51.698;-0.292;2024-01-15T03:58:49;12.05;;;2.92;;
76208;SDS011;64990;51.698;-0.292;2024-01-15T04:01:15;5.22;;;3.10;;
76208;SDS011;64990;51.698;-0.292;2024-01-15T04:03:41;5.15;;;2.15;;
76208;SDS011;64990;51.698;-0.292;2024-01-15T04:06:07;3.22;;;2.13;;
76208;SDS011;64990;51.698;-0.292;2024-01-15T04:08:33;8.18;;;2.47;;
76208;SDS011;64990;51.698;-0.292;2024-01-15T04:10:59;5.20;;;2.97;;
76208;SDS011;64990;51.698;-0.292;2024-01-15T04:13:26;17.15;;;2.80;;
76208;SDS011;64990;51.698;-0.292;2024-01-15T04:15:52;5.57;;;2.92;;
76208;SDS011;64990;51.698;-0.292;2024-01-15T04:18:18;3.50;;;2.47;;
76208;SDS011;64990;51.698;-0.292;2024-01-15T04:20:44;7.03;;;2.53;;
76208;SDS011;64990;51.698;-0.292;2024-01-15T04:23:10;3.25;;;2.40;;
76208;SDS011;64990;51.698;-0.292;2024-01-15T04:25:36;3.90;;;2.50;;
76208;SDS011;64990;51.698;-0.292;2024-01-15T04:28:02;6.30;;;2.88;;
76208;SDS011;64990;51.698;-0.292;2024-01-15T04:30:28;8.10;;;4.22;;
76208;SDS011;64990;51.698;-0.292;2024-01-15T04:32:54;6.80;;;2.75;;
76208;SDS011;64990;51.698;-0.292;2024-01-15T04:35:20;4.85;;;2.67;;
76208;SDS011;64990;51.698;-0.292;2024-01-15T04:37:46;6.80;;;3.03;;
76208;SDS011;64990;51.698;-0.292;2024-01-15T04:40:12;6.40;;;3.28;;
76208;SDS011;64990;51.698;-0.292;2024-01-15T04:42:38;3.40;;;3.08;;
76208;SDS011;64990;51.698;-0.292;2024-01-15T04:45:04;3.80;;;2.42;;
76208;SDS011;64990;51.698;-0.292;2024-01-15T04:47:30;4.30;;;2.67;;
76208;SDS011;64990;51.698;-0.292;2024-01-15T04:49:56;5.03;;;2.90;;
76208;SDS011;64990;51.698;-0.292;2024-01-15T04:52:22;4.28;;;3.20;;
76208;SDS011;64990;51.698;-0.292;2024-01-15T04:54:49;8.52;;;3.50;;
76208;SDS011;64990;51.698;-0.292;2024-01-15T04:57:15;5.70;;;2.90;;
76208;SDS011;64990;51.698;-0.292;2024-01-15T04:59:41;8.35;;;2.55;;
76208;SDS011;64990;51.698;-0.292;2024-01-15T05:02:07;6.93;;;3.05;;
76208;SDS011;64990;51.698;-0.292;2024-01-15T05:04:33;7.18;;;4.50;;
76208;SDS011;64990;51.698;-0.292;2024-01-15T05:06:59;4.10;;;2.83;;
76208;SDS011;64990;51.698;-0.292;2024-01-15T05:09:25;11.02;;;4.05;;
76208;SDS011;64990;51.698;-0.292;2024-01-15T05:11:51;4.95;;;3.10;;
76208;SDS011;64990;51.698;-0.292;2024-01-15T05:14:17;6.72;;;3.10;;
76208;SDS011;64990;51.698;-0.292;2024-01-15T05:16:49;7.15;;;2.75;;
76208;SDS011;64990;51.698;-0.292;2024-01-15T05:19:15;5.53;;;3.63;;
76208;SDS011;64990;51.698;-0.292;2024-01-15T05:21:41;4.20;;;2.60;;
76208;SDS011;64990;51.698;-0.292;2024-01-15T05:24:08;4.97;;;2.28;;
76208;SDS011;64990;51.698;-0.292;2024-01-15T05:26:34;4.93;;;2.15;;
76208;SDS011;64990;51.698;-0.292;2024-01-15T05:29:00;9.43;;;2.70;;
76208;SDS011;64990;51.698;-0.292;2024-01-15T05:31:26;3.63;;;2.75;;
76208;SDS011;64990;51.698;-0.292;2024-01-15T05:33:52;3.20;;;2.53;;
76208;SDS011;64990;51.698;-0.292;2024-01-15T05:36:18;5.22;;;2.58;;
76208;SDS011;64990;51.698;-0.292;2024-01-15T05:38:44;4.53;;;2.72;;
76208;SDS011;64990;51.698;-0.292;2024-01-15T05:41:10;7.75;;;4.40;;
76208;SDS011;64990;51.698;-0.292;2024-01-15T05:43:36;2.42;;;1.52;;
76208;SDS011;64990;51.698;-0.292;2024-01-15T05:46:02;4.72;;;2.00;;
76208;SDS011;64990;51.698;-0.292;2024-01-15T05:48:28;7.38;;;2.35;;
76208;SDS011;64990;51.698;-0.292;2024-01-15T05:50:54;3.45;;;2.33;;
76208;SDS011;64990;51.698;-0.292;2024-01-15T05:53:20;5.63;;;2.05;;
76208;SDS011;64990;51.698;-0.292;2024-01-15T05:55:46;2.55;;;2.00;;
76208;SDS011;64990;51.698;-0.292;2024-01-15T05:58:12;5.85;;;1.90;;
76208;SDS011;64990;51.698;-0.292;2024-01-15T06:00:38;3.90;;;2.28;;
76208;SDS011;64990;51.698;-0.292;2024-01-15T06:03:04;5.97;;;1.73;;
76208;SDS011;64990;51.698;-0.292;2024-01-15T06:05:30;2.20;;;1.50;;
76208;SDS011;64990;51.698;-0.292;2024-01-15T06:07:56;1.50;;;1.40;;
76208;SDS011;64990;51.698;-0.292;2024-01-15T06:10:22;1.70;;;1.60;;
76208;SDS011;64990;51.698;-0.292;2024-01-15T06:12:48;2.67;;;2.17;;
76208;SDS011;64990;51.698;-0.292;2024-01-15T06:15:14;3.10;;;2.70;;
76208;SDS011;64990;51.698;-0.292;2024-01-15T06:17:40;9.80;;;2.92;;
76208;SDS011;64990;51.698;-0.292;2024-01-15T06:20:07;1.98;;;1.85;;
76208;SDS011;64990;51.698;-0.292;2024-01-15T06:22:34;2.35;;;1.67;;
76208;SDS011;64990;51.698;-0.292;2024-01-15T06:25:01;4.75;;;2.22;;
76208;SDS011;64990;51.698;-0.292;2024-01-15T06:27:28;1.70;;;1.42;;
76208;SDS011;64990;51.698;-0.292;2024-01-15T06:29:54;2.10;;;1.90;;
76208;SDS011;64990;51.698;-0.292;2024-01-15T06:32:21;2.08;;;1.67;;
76208;SDS011;64990;51.698;-0.292;2024-01-15T06:34:47;2.40;;;2.05;;
76208;SDS011;64990;51.698;-0.292;2024-01-15T06:37:13;2.90;;;2.60;;
76208;SDS011;64990;51.698;-0.292;2024-01-15T06:39:39;1.95;;;1.63;;
76208;SDS011;64990;51.698;-0.292;2024-01-15T06:42:06;3.53;;;2.22;;
76208;SDS011;64990;51.698;-0.292;2024-01-15T06:44:32;4.10;;;2.40;;
76208;SDS011;64990;51.698;-0.292;2024-01-15T06:46:58;4.63;;;1.95;;
76208;SDS011;64990;51.698;-0.292;2024-01-15T06:49:27;5.88;;;1.85;;
76208;SDS011;64990;51.698;-0.292;2024-01-15T06:51:54;8.25;;;2.20;;
76208;SDS011;64990;51.698;-0.292;2024-01-15T06:54:20;3.75;;;1.98;;
76208;SDS011;64990;51.698;-0.292;2024-01-15T06:56:46;2.38;;;1.92;;
76208;SDS011;64990;51.698;-0.292;2024-01-15T06:59:12;8.25;;;2.17;;
76208;SDS011;64990;51.698;-0.292;2024-01-15T07:01:38;1.63;;;1.52;;
76208;SDS011;64990;51.698;-0.292;2024-01-15T07:04:04;5.47;;;2.53;;
76208;SDS011;64990;51.698;-0.292;2024-01-15T07:06:30;6.03;;;1.50;;
76208;SDS011;64990;51.698;-0.292;2024-01-15T07:08:56;3.97;;;2.65;;
76208;SDS011;64990;51.698;-0.292;2024-01-15T07:11:22;1.30;;;1.20;;
76208;SDS011;64990;51.698;-0.292;2024-01-15T07:13:48;3.03;;;2.28;;
76208;SDS011;64990;51.698;-0.292;2024-01-15T07:16:15;4.32;;;2.78;;
76208;SDS011;64990;51.698;-0.292;2024-01-15T07:18:40;3.60;;;1.83;;
76208;SDS011;64990;51.698;-0.292;2024-01-15T07:21:06;3.33;;;1.70;;
76208;SDS011;64990;51.698;-0.292;2024-01-15T07:23:32;6.50;;;2.53;;
76208;SDS011;64990;51.698;-0.292;2024-01-15T07:25:58;5.70;;;2.10;;
76208;SDS011;64990;51.698;-0.292;2024-01-15T07:28:24;2.42;;;1.50;;
76208;SDS011;64990;51.698;-0.292;2024-01-15T07:30:51;4.90;;;1.50;;
76208;SDS011;64990;51.698;-0.292;2024-01-15T07:33:17;7.80;;;2.38;;
76208;SDS011;64990;51.698;-0.292;2024-01-15T07:35:43;5.22;;;2.33;;
76208;SDS011;64990;51.698;-0.292;2024-01-15T07:38:09;4.15;;;2.00;;
76208;SDS011;64990;51.698;-0.292;2024-01-15T07:40:36;3.95;;;2.03;;
76208;SDS011;64990;51.698;-0.292;2024-01-15T07:43:02;4.45;;;2.40;;
76208;SDS011;64990;51.698;-0.292;2024-01-15T07:45:29;4.45;;;2.47;;
76208;SDS011;64990;51.698;-0.292;2024-01-15T07:47:56;4.32;;;1.80;;
76208;SDS011;64990;51.698;-0.292;2024-01-15T07:50:22;7.97;;;1.65;;
76208;SDS011;64990;51.698;-0.292;2024-01-15T07:52:48;6.00;;;1.70;;
76208;SDS011;64990;51.698;-0.292;2024-01-15T07:55:14;3.58;;;2.47;;
76208;SDS011;64990;51.698;-0.292;2024-01-15T07:57:40;5.40;;;2.13;;
76208;SDS011;64990;51.698;-0.292;2024-01-15T08:00:06;4.50;;;1.80;;
76208;SDS011;64990;51.698;-0.292;2024-01-15T08:02:34;8.00;;;1.55;;
76208;SDS011;64990;51.698;-0.292;2024-01-15T08:05:00;19.08;;;4.05;;
76208;SDS011;64990;51.698;-0.292;2024-01-15T08:07:26;2.58;;;2.10;;
76208;SDS011;64990;51.698;-0.292;2024-01-15T08:09:52;3.95;;;2.38;;
76208;SDS011;64990;51.698;-0.292;2024-01-15T08:12:18;3.72;;;1.88;;
76208;SDS011;64990;51.698;-0.292;2024-01-15T08:14:45;6.35;;;2.10;;
76208;SDS011;64990;51.698;-0.292;2024-01-15T08:17:11;5.22;;;2.30;;
76208;SDS011;64990;51.698;-0.292;2024-01-15T08:19:37;3.85;;;1.80;;
76208;SDS011;64990;51.698;-0.292;2024-01-15T08:22:06;6.35;;;1.90;;
76208;SDS011;64990;51.698;-0.292;2024-01-15T08:24:32;5.63;;;1.63;;
76208;SDS011;64990;51.698;-0.292;2024-01-15T08:26:58;5.22;;;2.35;;
76208;SDS011;64990;51.698;-0.292;2024-01-15T08:29:24;5.70;;;2.42;;
76208;SDS011;64990;51.698;-0.292;2024-01-15T08:31:50;6.63;;;2.15;;
76208;SDS011;64990;51.698;-0.292;2024-01-15T08:34:16;5.75;;;1.48;;
76208;SDS011;64990;51.698;-0.292;2024-01-15T08:36:42;6.65;;;2.20;;
76208;SDS011;64990;51.698;-0.292;2024-01-15T08:39:08;2.17;;;1.30;;
76208;SDS011;64990;51.698;-0.292;2024-01-15T08:41:34;3.42;;;1.40;;
76208;SDS011;64990;51.698;-0.292;2024-01-15T08:44:00;2.25;;;1.50;;
76208;SDS011;64990;51.698;-0.292;2024-01-15T08:46:27;3.90;;;1.48;;
76208;SDS011;64990;51.698;-0.292;2024-01-15T08:48:53;3.10;;;1.95;;
76208;SDS011;64990;51.698;-0.292;2024-01-15T08:51:19;2.20;;;2.00;;
76208;SDS011;64990;51.698;-0.292;2024-01-15T08:53:45;10.52;;;1.20;;
76208;SDS011;64990;51.698;-0.292;2024-01-15T08:56:11;3.47;;;1.63;;
76208;SDS011;64990;51.698;-0.292;2024-01-15T08:58:37;3.22;;;1.52;;
76208;SDS011;64990;51.698;-0.292;2024-01-15T09:01:04;1.73;;;1.08;;
76208;SDS011;64990;51.698;-0.292;2024-01-15T09:03:30;5.88;;;1.98;;
76208;SDS011;64990;51.698;-0.292;2024-01-15T09:05:57;8.50;;;1.65;;
76208;SDS011;64990;51.698;-0.292;2024-01-15T09:08:23;1.73;;;1.42;;
76208;SDS011;64990;51.698;-0.292;2024-01-15T09:10:49;4.55;;;1.10;;
76208;SDS011;64990;51.698;-0.292;2024-01-15T09:13:15;3.38;;;1.75;;
76208;SDS011;64990;51.698;-0.292;2024-01-15T09:15:42;4.70;;;1.45;;
76208;SDS011;64990;51.698;-0.292;2024-01-15T09:18:08;2.15;;;1.52;;
76208;SDS011;64990;51.698;-0.292;2024-01-15T09:20:35;13.43;;;1.98;;
76208;SDS011;64990;51.698;-0.292;2024-01-15T09:23:01;5.18;;;1.85;;
76208;SDS011;64990;51.698;-0.292;2024-01-15T09:25:27;4.22;;;1.55;;
76208;SDS011;64990;51.698;-0.292;2024-01-15T09:27:56;5.38;;;1.17;;
76208;SDS011;64990;51.698;-0.292;2024-01-15T09:30:23;2.17;;;0.98;;
76208;SDS011;64990;51.698;-0.292;2024-01-15T09:32:49;5.60;;;2.08;;
76208;SDS011;64990;51.698;-0.292;2024-01-15T09:35:15;2.42;;;1.92;;
76208;SDS011;64990;51.698;-0.292;2024-01-15T09:37:41;3.25;;;1.77;;
76208;SDS011;64990;51.698;-0.292;2024-01-15T09:40:08;1.30;;;1.20;;
76208;SDS011;64990;51.698;-0.292;2024-01-15T09:42:39;8.55;;;2.15;;
76208;SDS011;64990;51.698;-0.292;2024-01-15T09:45:05;7.80;;;2.38;;
76208;SDS011;64990;51.698;-0.292;2024-01-15T09:47:31;3.28;;;1.33;;
76208;SDS011;64990;51.698;-0.292;2024-01-15T09:49:57;1.10;;;1.00;;
76208;SDS011;64990;51.698;-0.292;2024-01-15T09:52:24;6.07;;;1.70;;
76208;SDS011;64990;51.698;-0.292;2024-01-15T09:54:50;3.13;;;1.77;;
76208;SDS011;64990;51.698;-0.292;2024-01-15T09:57:16;2.70;;;1.30;;
76208;SDS011;64990;51.698;-0.292;2024-01-15T09:59:42;4.35;;;1.70;;
76208;SDS011;64990;51.698;-0.292;2024-01-15T10:02:08;11.18;;;2.28;;
76208;SDS011;64990;51.698;-0.292;2024-01-15T10:04:38;14.75;;;2.08;;
76208;SDS011;64990;51.698;-0.292;2024-01-15T10:07:04;1.80;;;1.27;;
76208;SDS011;64990;51.698;-0.292;2024-01-15T10:09:31;4.18;;;1.35;;
76208;SDS011;64990;51.698;-0.292;2024-01-15T10:11:57;4.80;;;1.85;;
76208;SDS011;64990;51.698;-0.292;2024-01-15T10:14:23;6.88;;;2.40;;
76208;SDS011;64990;51.698;-0.292;2024-01-15T10:16:50;2.13;;;1.80;;
76208;SDS011;64990;51.698;-0.292;2024-01-15T10:19:16;2.47;;;2.03;;
76208;SDS011;64990;51.698;-0.292;2024-01-15T10:21:42;2.47;;;2.05;;
76208;SDS011;64990;51.698;-0.292;2024-01-15T10:24:08;9.85;;;2.17;;
76208;SDS011;64990;51.698;-0.292;2024-01-15T10:26:34;6.72;;;2.00;;
76208;SDS011;64990;51.698;-0.292;2024-01-15T10:29:00;4.57;;;4.07;;
76208;SDS011;64990;51.698;-0.292;2024-01-15T10:31:26;6.10;;;3.95;;
76208;SDS011;64990;51.698;-0.292;2024-01-15T10:33:52;1.73;;;1.50;;
76208;SDS011;64990;51.698;-0.292;2024-01-15T10:36:19;6.22;;;2.13;;
76208;SDS011;64990;51.698;-0.292;2024-01-15T10:38:45;3.70;;;1.60;;
76208;SDS011;64990;51.698;-0.292;2024-01-15T10:41:11;6.88;;;1.58;;
76208;SDS011;64990;51.698;-0.292;2024-01-15T10:43:37;4.32;;;1.60;;
76208;SDS011;64990;51.698;-0.292;2024-01-15T10:46:06;9.68;;;1.80;;
76208;SDS011;64990;51.698;-0.292;2024-01-15T10:48:33;16.10;;;2.30;;
76208;SDS011;64990;51.698;-0.292;2024-01-15T10:51:01;2.72;;;1.77;;
76208;SDS011;64990;51.698;-0.292;2024-01-15T10:56:01;8.00;;;2.22;;
76208;SDS011;64990;51.698;-0.292;2024-01-15T10:58:28;8.32;;;1.95;;
76208;SDS011;64990;51.698;-0.292;2024-01-15T11:00:57;4.28;;;2.08;;
76208;SDS011;64990;51.698;-0.292;2024-01-15T11:03:23;4.05;;;2.08;;
76208;SDS011;64990;51.698;-0.292;2024-01-15T11:05:49;3.47;;;2.00;;
76208;SDS011;64990;51.698;-0.292;2024-01-15T11:08:16;1.75;;;1.45;;
76208;SDS011;64990;51.698;-0.292;2024-01-15T11:10:44;2.10;;;1.60;;
76208;SDS011;64990;51.698;-0.292;2024-01-15T11:13:15;8.30;;;2.25;;
76208;SDS011;64990;51.698;-0.292;2024-01-15T11:18:26;1.95;;;1.20;;
76208;SDS011;64990;51.698;-0.292;2024-01-15T11:29:08;4.05;;;1.52;;
76208;SDS011;64990;51.698;-0.292;2024-01-15T11:34:10;2.92;;;1.27;;
76208;SDS011;64990;51.698;-0.292;2024-01-15T11:42:02;5.15;;;1.23;;
76208;SDS011;64990;51.698;-0.292;2024-01-15T11:44:28;4.97;;;1.70;;
76208;SDS011;64990;51.698;-0.292;2024-01-15T11:46:58;3.03;;;1.48;;
76208;SDS011;64990;51.698;-0.292;2024-01-15T11:52:11;2.05;;;1.30;;
76208;SDS011;64990;51.698;-0.292;2024-01-15T11:54:39;0.77;;;0.77;;
76208;SDS011;64990;51.698;-0.292;2024-01-15T11:57:12;3.05;;;1.00;;
76208;SDS011;64990;51.698;-0.292;2024-01-15T11:59:42;2.97;;;1.45;;
76208;SDS011;64990;51.698;-0.292;2024-01-15T12:02:10;2.25;;;1.30;;
76208;SDS011;64990;51.698;-0.292;2024-01-15T12:04:38;4.35;;;1.27;;
76208;SDS011;64990;51.698;-0.292;2024-01-15T12:07:04;2.50;;;1.63;;
76208;SDS011;64990;51.698;-0.292;2024-01-15T12:09:30;0.80;;;0.80;;
76208;SDS011;64990;51.698;-0.292;2024-01-15T12:12:03;4.25;;;1.20;;
76208;SDS011;64990;51.698;-0.292;2024-01-15T12:14:33;10.23;;;1.63;;
76208;SDS011;64990;51.698;-0.292;2024-01-15T12:17:00;5.18;;;1.50;;
76208;SDS011;64990;51.698;-0.292;2024-01-15T12:19:27;2.45;;;1.08;;
76208;SDS011;64990;51.698;-0.292;2024-01-15T12:21:53;2.47;;;1.08;;
76208;SDS011;64990;51.698;-0.292;2024-01-15T12:24:20;7.55;;;1.77;;
76208;SDS011;64990;51.698;-0.292;2024-01-15T12:26:46;5.60;;;1.45;;
76208;SDS011;64990;51.698;-0.292;2024-01-15T12:29:12;1.50;;;1.05;;
76208;SDS011;64990;51.698;-0.292;2024-01-15T12:31:38;5.72;;;1.00;;
76208;SDS011;64990;51.698;-0.292;2024-01-15T12:34:05;5.45;;;1.48;;
76208;SDS011;64990;51.698;-0.292;2024-01-15T12:36:31;1.75;;;1.27;;
76208;SDS011;64990;51.698;-0.292;2024-01-15T12:39:00;6.57;;;1.45;;
76208;SDS011;64990;51.698;-0.292;2024-01-15T12:41:26;13.48;;;1.80;;
76208;SDS011;64990;51.698;-0.292;2024-01-15T12:43:52;6.13;;;1.85;;
76208;SDS011;64990;51.698;-0.292;2024-01-15T12:46:18;1.20;;;1.08;;
76208;SDS011;64990;51.698;-0.292;2024-01-15T12:48:45;4.72;;;1.30;;
76208;SDS011;64990;51.698;-0.292;2024-01-15T12:51:11;3.45;;;1.70;;
76208;SDS011;64990;51.698;-0.292;2024-01-15T12:53:37;8.20;;;2.03;;
76208;SDS011;64990;51.698;-0.292;2024-01-15T12:56:03;5.15;;;1.40;;
76208;SDS011;64990;51.698;-0.292;2024-01-15T12:58:29;0.90;;;0.90;;
76208;SDS011;64990;51.698;-0.292;2024-01-15T13:00:55;7.22;;;1.92;;
76208;SDS011;64990;51.698;-0.292;2024-01-15T13:03:22;5.40;;;1.42;;
76208;SDS011;64990;51.698;-0.292;2024-01-15T13:05:48;5.32;;;1.38;;
76208;SDS011;64990;51.698;-0.292;2024-01-15T13:08:14;6.00;;;1.60;;
76208;SDS011;64990;51.698;-0.292;2024-01-15T13:10:40;1.35;;;1.13;;
76208;SDS011;64990;51.698;-0.292;2024-01-15T13:13:07;3.13;;;1.17;;
76208;SDS011;64990;51.698;-0.292;2024-01-15T13:15:33;0.82;;;0.77;;
76208;SDS011;64990;51.698;-0.292;2024-01-15T13:17:59;5.00;;;1.98;;
76208;SDS011;64990;51.698;-0.292;2024-01-15T13:20:25;3.30;;;0.90;;
76208;SDS011;64990;51.698;-0.292;2024-01-15T13:22:51;0.85;;;0.85;;
76208;SDS011;64990;51.698;-0.292;2024-01-15T13:25:17;1.38;;;1.08;;
76208;SDS011;64990;51.698;-0.292;2024-01-15T13:27:43;3.80;;;1.08;;
76208;SDS011;64990;51.698;-0.292;2024-01-15T13:30:10;18.17;;;3.08;;
76208;SDS011;64990;51.698;-0.292;2024-01-15T13:32:37;3.28;;;1.58;;
76208;SDS011;64990;51.698;-0.292;2024-01-15T13:35:03;2.58;;;1.13;;
76208;SDS011;64990;51.698;-0.292;2024-01-15T13:37:34;2.55;;;1.60;;
76208;SDS011;64990;51.698;-0.292;2024-01-15T13:40:02;3.05;;;0.93;;
76208;SDS011;64990;51.698;-0.292;2024-01-15T13:42:28;3.15;;;2.10;;
76208;SDS011;64990;51.698;-0.292;2024-01-15T13:44:54;4.43;;;1.25;;
76208;SDS011;64990;51.698;-0.292;2024-01-15T13:47:20;1.58;;;1.48;;
76208;SDS011;64990;51.698;-0.292;2024-01-15T13:49:47;5.72;;;1.85;;
76208;SDS011;64990;51.698;-0.292;2024-01-15T13:52:13;5.15;;;1.40;;
76208;SDS011;64990;51.698;-0.292;2024-01-15T13:54:39;4.07;;;1.17;;
76208;SDS011;64990;51.698;-0.292;2024-01-15T13:57:05;3.20;;;1.25;;
76208;SDS011;64990;51.698;-0.292;2024-01-15T13:59:32;3.58;;;1.13;;
76208;SDS011;64990;51.698;-0.292;2024-01-15T14:01:58;5.75;;;1.00;;
76208;SDS011;64990;51.698;-0.292;2024-01-15T14:04:24;7.57;;;1.48;;
76208;SDS011;64990;51.698;-0.292;2024-01-15T14:06:50;3.88;;;1.90;;
76208;SDS011;64990;51.698;-0.292;2024-01-15T14:09:16;7.30;;;1.35;;
76208;SDS011;64990;51.698;-0.292;2024-01-15T14:11:42;9.93;;;1.13;;
76208;SDS011;64990;51.698;-0.292;2024-01-15T14:14:08;4.75;;;2.28;;
76208;SDS011;64990;51.698;-0.292;2024-01-15T14:16:34;1.85;;;1.65;;
76208;SDS011;64990;51.698;-0.292;2024-01-15T14:19:01;3.00;;;1.85;;
76208;SDS011;64990;51.698;-0.292;2024-01-15T14:21:27;5.95;;;1.00;;
76208;SDS011;64990;51.698;-0.292;2024-01-15T14:23:53;2.97;;;2.67;;
76208;SDS011;64990;51.698;-0.292;2024-01-15T14:26:19;3.47;;;1.80;;
76208;SDS011;64990;51.698;-0.292;2024-01-15T14:28:45;2.03;;;1.45;;
76208;SDS011;64990;51.698;-0.292;2024-01-15T14:31:12;12.32;;;1.58;;
76208;SDS011;64990;51.698;-0.292;2024-01-15T14:33:38;8.05;;;2.88;;
76208;SDS011;64990;51.698;-0.292;2024-01-15T14:36:04;2.03;;;1.55;;
76208;SDS011;64990;51.698;-0.292;2024-01-15T14:38:30;8.00;;;1.40;;
76208;SDS011;64990;51.698;-0.292;2024-01-15T14:40:56;1.55;;;1.45;;
76208;SDS011;64990;51.698;-0.292;2024-01-15T14:43:22;6.57;;;1.88;;
76208;SDS011;64990;51.698;-0.292;2024-01-15T14:45:48;0.90;;;0.90;;
76208;SDS011;64990;51.698;-0.292;2024-01-15T14:48:14;5.88;;;1.90;;
76208;SDS011;64990;51.698;-0.292;2024-01-15T14:50:40;6.22;;;1.73;;
76208;SDS011;64990;51.698;-0.292;2024-01-15T14:53:06;9.20;;;2.28;;